sensor_id;sensor_type;location;lat;lon;timestamp;temperature;humidity
3944;DHT22;1986;52.546;13.428;2022-07-29T00:00:07;15.50;99.90
3944;DHT22;1986;52.546;13.428;2022-07-29T00:02:36;15.50;99.90
3944;DHT22;1986;52.546;13.428;2022-07-29T00:05:08;15.50;99.90
3944;DHT22;1986;52.546;13.428;2022-07-29T00:07:39;15.40;99.90
3944;DHT22;1986;52.546;13.428;2022-07-29T00:10:08;15.40;99.90
3944;DHT22;1986;52.546;13.428;2022-07-29T00:12:35;15.40;99.90
3944;DHT22;1986;52.546;13.428;2022-07-29T00:15:03;15.40;99.90
3944;DHT22;1986;52.546;13.428;2022-07-29T00:17:31;15.40;99.90
3944;DHT22;1986;52.546;13.428;2022-07-29T00:20:04;15.30;99.90
3944;DHT22;1986;52.546;13.428;2022-07-29T00:22:31;15.30;99.90
3944;DHT22;1986;52.546;13.428;2022-07-29T00:24:58;15.30;99.90
3944;DHT22;1986;52.546;13.428;2022-07-29T00:27:25;15.20;99.90
3944;DHT22;1986;52.546;13.428;2022-07-29T00:29:52;15.20;99.90
3944;DHT22;1986;52.546;13.428;2022-07-29T00:32:19;15.20;99.90
3944;DHT22;1986;52.546;13.428;2022-07-29T00:34:46;15.20;99.90
3944;DHT22;1986;52.546;13.428;2022-07-29T00:37:32;15.20;99.90
3944;DHT22;1986;52.546;13.428;2022-07-29T00:39:59;15.10;99.90
3944;DHT22;1986;52.546;13.428;2022-07-29T00:42:28;15.10;99.90
3944;DHT22;1986;52.546;13.428;2022-07-29T00:44:55;15.10;99.90
3944;DHT22;1986;52.546;13.428;2022-07-29T00:47:22;15.00;99.90
3944;DHT22;1986;52.546;13.428;2022-07-29T00:49:49;15.00;99.90
3944;DHT22;1986;52.546;13.428;2022-07-29T00:52:16;15.00;99.90
3944;DHT22;1986;52.546;13.428;2022-07-29T00:54:45;15.00;99.90
3944;DHT22;1986;52.546;13.428;2022-07-29T00:57:14;15.00;99.90
3944;DHT22;1986;52.546;13.428;2022-07-29T00:59:43;14.90;99.90
3944;DHT22;1986;52.546;13.428;2022-07-29T01:02:09;14.90;99.90
3944;DHT22;1986;52.546;13.428;2022-07-29T01:04:40;14.90;99.90
3944;DHT22;1986;52.546;13.428;2022-07-29T01:07:07;14.90;99.90
3944;DHT22;1986;52.546;13.428;2022-07-29T01:09:37;14.80;99.90
3944;DHT22;1986;52.546;13.428;2022-07-29T01:12:07;14.80;99.90
3944;DHT22;1986;52.546;13.428;2022-07-29T01:14:35;14.80;99.90
3944;DHT22;1986;52.546;13.428;2022-07-29T01:17:12;14.80;99.90
3944;DHT22;1986;52.546;13.428;2022-07-29T01:19:49;14.80;99.90
3944;DHT22;1986;52.546;13.428;2022-07-29T01:22:42;14.80;99.90
3944;DHT22;1986;52.546;13.428;2022-07-29T01:31:44;14.70;99.90
3944;DHT22;1986;52.546;13.428;2022-07-29T01:34:18;14.60;99.90
3944;DHT22;1986;52.546;13.428;2022-07-29T01:36:55;14.60;99.90
3944;DHT22;1986;52.546;13.428;2022-07-29T01:39:29;14.60;99.90
3944;DHT22;1986;52.546;13.428;2022-07-29T01:41:59;14.50;99.90
3944;DHT22;1986;52.546;13.428;2022-07-29T01:44:33;14.50;99.90
3944;DHT22;1986;52.546;13.428;2022-07-29T01:47:09;14.50;99.90
3944;DHT22;1986;52.546;13.428;2022-07-29T01:49:43;14.50;99.90
3944;DHT22;1986;52.546;13.428;2022-07-29T01:52:19;14.40;99.90
3944;DHT22;1986;52.546;13.428;2022-07-29T01:54:51;14.40;99.90
3944;DHT22;1986;52.546;13.428;2022-07-29T01:57:25;14.40;99.90
3944;DHT22;1986;52.546;13.428;2022-07-29T01:59:54;14.40;99.90
3944;DHT22;1986;52.546;13.428;2022-07-29T02:02:24;14.30;99.90
3944;DHT22;1986;52.546;13.428;2022-07-29T02:04:53;14.30;99.90
3944;DHT22;1986;52.546;13.428;2022-07-29T02:07:21;14.20;99.90
3944;DHT22;1986;52.546;13.428;2022-07-29T02:09:51;14.20;99.90
3944;DHT22;1986;52.546;13.428;2022-07-29T02:12:20;14.10;99.90
3944;DHT22;1986;52.546;13.428;2022-07-29T02:14:50;14.10;99.90
3944;DHT22;1986;52.546;13.428;2022-07-29T02:17:25;14.00;99.90
3944;DHT22;1986;52.546;13.428;2022-07-29T02:19:57;14.10;99.90
3944;DHT22;1986;52.546;13.428;2022-07-29T02:22:25;14.00;99.90
3944;DHT22;1986;52.546;13.428;2022-07-29T02:24:56;14.10;99.90
3944;DHT22;1986;52.546;13.428;2022-07-29T02:27:25;14.00;99.90
3944;DHT22;1986;52.546;13.428;2022-07-29T02:29:53;14.00;99.90
3944;DHT22;1986;52.546;13.428;2022-07-29T02:32:24;14.00;99.90
3944;DHT22;1986;52.546;13.428;2022-07-29T02:34:53;14.00;99.90
3944;DHT22;1986;52.546;13.428;2022-07-29T02:37:21;14.00;99.90
3944;DHT22;1986;52.546;13.428;2022-07-29T02:39:49;14.00;99.90
3944;DHT22;1986;52.546;13.428;2022-07-29T02:42:17;14.00;99.90
3944;DHT22;1986;52.546;13.428;2022-07-29T02:44:47;14.00;99.90
3944;DHT22;1986;52.546;13.428;2022-07-29T02:47:20;14.10;99.90
3944;DHT22;1986;52.546;13.428;2022-07-29T02:49:54;14.10;99.90
3944;DHT22;1986;52.546;13.428;2022-07-29T02:52:25;14.10;99.90
3944;DHT22;1986;52.546;13.428;2022-07-29T02:54:56;14.10;99.90
3944;DHT22;1986;52.546;13.428;2022-07-29T02:57:33;14.10;99.90
3944;DHT22;1986;52.546;13.428;2022-07-29T03:00:05;14.10;99.90
3944;DHT22;1986;52.546;13.428;2022-07-29T03:02:36;14.10;99.90
3944;DHT22;1986;52.546;13.428;2022-07-29T03:05:06;14.20;99.90
3944;DHT22;1986;52.546;13.428;2022-07-29T03:07:35;14.20;99.90
3944;DHT22;1986;52.546;13.428;2022-07-29T03:10:07;14.20;99.90
3944;DHT22;1986;52.546;13.428;2022-07-29T03:12:35;14.20;99.90
3944;DHT22;1986;52.546;13.428;2022-07-29T03:15:07;14.20;99.90
3944;DHT22;1986;52.546;13.428;2022-07-29T03:17:35;14.30;99.90
3944;DHT22;1986;52.546;13.428;2022-07-29T03:20:18;14.30;99.90
3944;DHT22;1986;52.546;13.428;2022-07-29T03:22:46;14.30;99.90
3944;DHT22;1986;52.546;13.428;2022-07-29T03:25:14;14.30;99.90
3944;DHT22;1986;52.546;13.428;2022-07-29T03:27:43;14.30;99.90
3944;DHT22;1986;52.546;13.428;2022-07-29T03:30:14;14.30;99.90
3944;DHT22;1986;52.546;13.428;2022-07-29T03:32:41;14.40;99.90
3944;DHT22;1986;52.546;13.428;2022-07-29T03:35:08;14.40;99.90
3944;DHT22;1986;52.546;13.428;2022-07-29T03:37:37;14.40;99.90
3944;DHT22;1986;52.546;13.428;2022-07-29T03:40:07;14.40;99.90
3944;DHT22;1986;52.546;13.428;2022-07-29T03:42:37;14.40;99.90
3944;DHT22;1986;52.546;13.428;2022-07-29T03:45:09;14.40;99.90
3944;DHT22;1986;52.546;13.428;2022-07-29T03:47:40;14.40;99.90
3944;DHT22;1986;52.546;13.428;2022-07-29T03:50:11;14.40;99.90
3944;DHT22;1986;52.546;13.428;2022-07-29T03:52:40;14.40;99.90
3944;DHT22;1986;52.546;13.428;2022-07-29T03:55:08;14.50;99.90
3944;DHT22;1986;52.546;13.428;2022-07-29T03:57:38;14.40;99.90
3944;DHT22;1986;52.546;13.428;2022-07-29T04:00:07;14.50;99.90
3944;DHT22;1986;52.546;13.428;2022-07-29T04:02:36;14.50;99.90
3944;DHT22;1986;52.546;13.428;2022-07-29T04:05:12;14.40;99.90
3944;DHT22;1986;52.546;13.428;2022-07-29T04:07:44;14.50;99.90
3944;DHT22;1986;52.546;13.428;2022-07-29T04:10:12;14.40;99.90
3944;DHT22;1986;52.546;13.428;2022-07-29T04:12:42;14.50;99.90
3944;DHT22;1986;52.546;13.428;2022-07-29T04:15:10;14.50;99.90
3944;DHT22;1986;52.546;13.428;2022-07-29T04:17:37;14.50;99.90
3944;DHT22;1986;52.546;13.428;2022-07-29T04:20:05;14.60;99.90
3944;DHT22;1986;52.546;13.428;2022-07-29T04:22:32;14.70;99.90
3944;DHT22;1986;52.546;13.428;2022-07-29T04:25:01;14.80;99.90
3944;DHT22;1986;52.546;13.428;2022-07-29T04:27:29;14.70;99.90
3944;DHT22;1986;52.546;13.428;2022-07-29T04:29:56;14.80;99.90
3944;DHT22;1986;52.546;13.428;2022-07-29T04:32:23;14.90;99.90
3944;DHT22;1986;52.546;13.428;2022-07-29T04:34:51;14.90;99.90
3944;DHT22;1986;52.546;13.428;2022-07-29T04:37:19;15.00;99.90
3944;DHT22;1986;52.546;13.428;2022-07-29T04:39:46;15.00;99.90
3944;DHT22;1986;52.546;13.428;2022-07-29T04:42:15;15.20;99.90
3944;DHT22;1986;52.546;13.428;2022-07-29T04:44:44;15.20;99.90
3944;DHT22;1986;52.546;13.428;2022-07-29T04:47:11;15.20;99.90
3944;DHT22;1986;52.546;13.428;2022-07-29T04:49:38;15.20;99.90
3944;DHT22;1986;52.546;13.428;2022-07-29T04:52:09;15.20;99.90
3944;DHT22;1986;52.546;13.428;2022-07-29T04:54:36;15.20;99.90
3944;DHT22;1986;52.546;13.428;2022-07-29T04:57:03;15.30;99.90
3944;DHT22;1986;52.546;13.428;2022-07-29T04:59:33;15.30;99.90
3944;DHT22;1986;52.546;13.428;2022-07-29T05:02:00;15.30;99.90
3944;DHT22;1986;52.546;13.428;2022-07-29T05:04:27;15.40;99.90
3944;DHT22;1986;52.546;13.428;2022-07-29T05:06:57;15.30;99.90
3944;DHT22;1986;52.546;13.428;2022-07-29T05:09:24;15.40;99.90
3944;DHT22;1986;52.546;13.428;2022-07-29T05:11:59;15.40;99.90
3944;DHT22;1986;52.546;13.428;2022-07-29T05:14:26;15.50;99.90
3944;DHT22;1986;52.546;13.428;2022-07-29T05:16:56;15.60;99.90
3944;DHT22;1986;52.546;13.428;2022-07-29T05:19:23;15.80;99.90
3944;DHT22;1986;52.546;13.428;2022-07-29T05:21:50;15.90;99.90
3944;DHT22;1986;52.546;13.428;2022-07-29T05:24:20;16.00;99.90
3944;DHT22;1986;52.546;13.428;2022-07-29T05:26:51;16.20;99.90
3944;DHT22;1986;52.546;13.428;2022-07-29T05:29:23;16.30;99.90
3944;DHT22;1986;52.546;13.428;2022-07-29T05:31:49;16.50;99.90
3944;DHT22;1986;52.546;13.428;2022-07-29T05:34:21;16.60;99.90
3944;DHT22;1986;52.546;13.428;2022-07-29T05:36:50;16.60;99.90
3944;DHT22;1986;52.546;13.428;2022-07-29T05:39:21;16.70;99.90
3944;DHT22;1986;52.546;13.428;2022-07-29T05:41:48;16.80;99.90
3944;DHT22;1986;52.546;13.428;2022-07-29T05:44:15;16.90;99.90
3944;DHT22;1986;52.546;13.428;2022-07-29T05:46:42;16.80;99.90
3944;DHT22;1986;52.546;13.428;2022-07-29T05:49:09;16.70;99.90
3944;DHT22;1986;52.546;13.428;2022-07-29T05:51:38;16.70;99.90
3944;DHT22;1986;52.546;13.428;2022-07-29T05:54:08;16.70;99.90
3944;DHT22;1986;52.546;13.428;2022-07-29T05:56:36;16.70;99.90
3944;DHT22;1986;52.546;13.428;2022-07-29T05:59:03;16.70;99.90
3944;DHT22;1986;52.546;13.428;2022-07-29T06:01:30;16.70;99.90
3944;DHT22;1986;52.546;13.428;2022-07-29T06:03:57;16.80;99.90
3944;DHT22;1986;52.546;13.428;2022-07-29T06:06:24;16.80;99.90
3944;DHT22;1986;52.546;13.428;2022-07-29T06:08:52;17.10;99.90
3944;DHT22;1986;52.546;13.428;2022-07-29T06:11:19;17.20;99.90
3944;DHT22;1986;52.546;13.428;2022-07-29T06:13:47;17.50;99.90
3944;DHT22;1986;52.546;13.428;2022-07-29T06:16:14;17.60;99.90
3944;DHT22;1986;52.546;13.428;2022-07-29T06:18:42;17.60;99.90
3944;DHT22;1986;52.546;13.428;2022-07-29T06:21:09;17.80;99.90
3944;DHT22;1986;52.546;13.428;2022-07-29T06:23:36;18.20;99.90
3944;DHT22;1986;52.546;13.428;2022-07-29T06:26:06;18.80;99.90
3944;DHT22;1986;52.546;13.428;2022-07-29T06:28:34;19.50;99.90
3944;DHT22;1986;52.546;13.428;2022-07-29T06:31:02;20.30;99.90
3944;DHT22;1986;52.546;13.428;2022-07-29T06:33:29;20.30;99.90
3944;DHT22;1986;52.546;13.428;2022-07-29T06:35:56;20.80;99.90
3944;DHT22;1986;52.546;13.428;2022-07-29T06:38:23;20.50;99.90
3944;DHT22;1986;52.546;13.428;2022-07-29T06:40:50;19.90;99.90
3944;DHT22;1986;52.546;13.428;2022-07-29T06:43:33;19.70;99.90
3944;DHT22;1986;52.546;13.428;2022-07-29T06:46:02;19.70;99.90
3944;DHT22;1986;52.546;13.428;2022-07-29T06:48:29;19.60;99.90
3944;DHT22;1986;52.546;13.428;2022-07-29T06:51:01;19.30;99.90
3944;DHT22;1986;52.546;13.428;2022-07-29T06:53:30;19.00;99.90
3944;DHT22;1986;52.546;13.428;2022-07-29T06:55:59;19.10;99.90
3944;DHT22;1986;52.546;13.428;2022-07-29T06:58:26;19.10;99.90
3944;DHT22;1986;52.546;13.428;2022-07-29T07:00:55;19.30;99.90
3944;DHT22;1986;52.546;13.428;2022-07-29T07:03:24;19.50;99.90
3944;DHT22;1986;52.546;13.428;2022-07-29T07:05:52;19.40;99.90
3944;DHT22;1986;52.546;13.428;2022-07-29T07:08:21;19.20;99.90
3944;DHT22;1986;52.546;13.428;2022-07-29T07:10:49;19.10;99.90
3944;DHT22;1986;52.546;13.428;2022-07-29T07:13:16;19.20;99.90
3944;DHT22;1986;52.546;13.428;2022-07-29T07:15:45;19.40;99.90
3944;DHT22;1986;52.546;13.428;2022-07-29T07:18:15;19.70;99.90
3944;DHT22;1986;52.546;13.428;2022-07-29T07:20:42;20.20;99.90
3944;DHT22;1986;52.546;13.428;2022-07-29T07:23:09;20.60;99.90
3944;DHT22;1986;52.546;13.428;2022-07-29T07:25:36;21.00;99.90
3944;DHT22;1986;52.546;13.428;2022-07-29T07:28:05;21.30;99.90
3944;DHT22;1986;52.546;13.428;2022-07-29T07:30:32;21.80;99.40
3944;DHT22;1986;52.546;13.428;2022-07-29T07:33:02;21.40;98.30
3944;DHT22;1986;52.546;13.428;2022-07-29T07:35:30;21.70;98.40
3944;DHT22;1986;52.546;13.428;2022-07-29T07:37:57;21.90;97.80
3944;DHT22;1986;52.546;13.428;2022-07-29T07:40:25;22.00;97.70
3944;DHT22;1986;52.546;13.428;2022-07-29T07:42:52;21.80;97.30
3944;DHT22;1986;52.546;13.428;2022-07-29T07:45:19;22.10;97.00
3944;DHT22;1986;52.546;13.428;2022-07-29T07:47:46;22.40;96.50
3944;DHT22;1986;52.546;13.428;2022-07-29T07:50:13;23.30;95.90
3944;DHT22;1986;52.546;13.428;2022-07-29T07:52:49;24.00;94.20
3944;DHT22;1986;52.546;13.428;2022-07-29T07:55:18;24.10;93.80
3944;DHT22;1986;52.546;13.428;2022-07-29T07:57:47;24.50;93.00
3944;DHT22;1986;52.546;13.428;2022-07-29T08:00:15;24.60;90.40
3944;DHT22;1986;52.546;13.428;2022-07-29T08:02:43;24.90;90.50
3944;DHT22;1986;52.546;13.428;2022-07-29T08:05:10;24.90;89.40
3944;DHT22;1986;52.546;13.428;2022-07-29T08:07:42;26.10;89.30
3944;DHT22;1986;52.546;13.428;2022-07-29T08:10:12;27.10;84.70
3944;DHT22;1986;52.546;13.428;2022-07-29T08:12:39;27.00;83.20
3944;DHT22;1986;52.546;13.428;2022-07-29T08:15:07;25.70;80.10
3944;DHT22;1986;52.546;13.428;2022-07-29T08:17:34;25.80;81.50
3944;DHT22;1986;52.546;13.428;2022-07-29T08:20:07;25.00;81.10
3944;DHT22;1986;52.546;13.428;2022-07-29T08:22:34;24.60;82.50
3944;DHT22;1986;52.546;13.428;2022-07-29T08:25:01;25.00;81.50
3944;DHT22;1986;52.546;13.428;2022-07-29T08:27:29;25.60;80.90
3944;DHT22;1986;52.546;13.428;2022-07-29T08:29:57;25.70;80.80
3944;DHT22;1986;52.546;13.428;2022-07-29T08:32:25;27.00;80.60
3944;DHT22;1986;52.546;13.428;2022-07-29T08:34:54;26.90;77.10
3944;DHT22;1986;52.546;13.428;2022-07-29T08:37:23;27.10;73.80
3944;DHT22;1986;52.546;13.428;2022-07-29T08:39:52;27.40;73.40
3944;DHT22;1986;52.546;13.428;2022-07-29T08:42:35;26.00;73.20
3944;DHT22;1986;52.546;13.428;2022-07-29T08:45:42;24.80;74.80
3944;DHT22;1986;52.546;13.428;2022-07-29T08:48:11;24.70;78.60
3944;DHT22;1986;52.546;13.428;2022-07-29T08:50:40;24.50;78.00
3944;DHT22;1986;52.546;13.428;2022-07-29T08:53:19;24.60;78.90
3944;DHT22;1986;52.546;13.428;2022-07-29T08:55:49;24.60;76.60
3944;DHT22;1986;52.546;13.428;2022-07-29T08:58:18;24.00;75.50
3944;DHT22;1986;52.546;13.428;2022-07-29T09:00:52;24.20;77.60
3944;DHT22;1986;52.546;13.428;2022-07-29T09:03:22;24.10;76.80
3944;DHT22;1986;52.546;13.428;2022-07-29T09:05:58;24.00;76.70
3944;DHT22;1986;52.546;13.428;2022-07-29T09:08:27;24.00;77.40
3944;DHT22;1986;52.546;13.428;2022-07-29T09:10:57;24.00;77.00
3944;DHT22;1986;52.546;13.428;2022-07-29T09:13:28;23.90;77.80
3944;DHT22;1986;52.546;13.428;2022-07-29T09:16:00;23.60;76.90
3944;DHT22;1986;52.546;13.428;2022-07-29T09:18:53;23.70;77.10
3944;DHT22;1986;52.546;13.428;2022-07-29T09:21:24;23.90;77.90
3944;DHT22;1986;52.546;13.428;2022-07-29T09:24:11;24.10;77.40
3944;DHT22;1986;52.546;13.428;2022-07-29T09:26:40;24.30;77.60
3944;DHT22;1986;52.546;13.428;2022-07-29T09:33:00;24.50;77.10
3944;DHT22;1986;52.546;13.428;2022-07-29T09:35:34;24.60;75.40
3944;DHT22;1986;52.546;13.428;2022-07-29T09:38:11;24.30;73.80
3944;DHT22;1986;52.546;13.428;2022-07-29T09:40:39;24.00;73.00
3944;DHT22;1986;52.546;13.428;2022-07-29T09:43:10;24.20;73.70
3944;DHT22;1986;52.546;13.428;2022-07-29T09:45:39;24.20;73.20
3944;DHT22;1986;52.546;13.428;2022-07-29T09:48:15;24.20;73.80
3944;DHT22;1986;52.546;13.428;2022-07-29T09:50:46;24.20;73.30
3944;DHT22;1986;52.546;13.428;2022-07-29T09:53:30;24.00;72.90
3944;DHT22;1986;52.546;13.428;2022-07-29T09:55:58;24.10;73.80
3944;DHT22;1986;52.546;13.428;2022-07-29T09:58:29;24.40;73.90
3944;DHT22;1986;52.546;13.428;2022-07-29T10:01:01;24.30;73.60
3944;DHT22;1986;52.546;13.428;2022-07-29T10:03:32;24.40;73.20
3944;DHT22;1986;52.546;13.428;2022-07-29T10:06:09;24.50;74.20
3944;DHT22;1986;52.546;13.428;2022-07-29T10:08:36;24.60;72.30
3944;DHT22;1986;52.546;13.428;2022-07-29T10:11:11;24.70;71.90
3944;DHT22;1986;52.546;13.428;2022-07-29T10:13:42;25.20;72.20
3944;DHT22;1986;52.546;13.428;2022-07-29T10:16:10;25.60;71.10
3944;DHT22;1986;52.546;13.428;2022-07-29T10:18:40;25.80;69.60
3944;DHT22;1986;52.546;13.428;2022-07-29T10:21:08;25.30;67.80
3944;DHT22;1986;52.546;13.428;2022-07-29T10:23:38;25.20;68.30
3944;DHT22;1986;52.546;13.428;2022-07-29T10:26:06;24.90;65.40
3944;DHT22;1986;52.546;13.428;2022-07-29T10:28:33;24.50;65.20
3944;DHT22;1986;52.546;13.428;2022-07-29T10:31:05;24.70;66.30
3944;DHT22;1986;52.546;13.428;2022-07-29T10:33:47;24.90;66.00
3944;DHT22;1986;52.546;13.428;2022-07-29T10:36:27;24.80;64.10
3944;DHT22;1986;52.546;13.428;2022-07-29T10:39:05;25.00;64.20
3944;DHT22;1986;52.546;13.428;2022-07-29T10:41:52;24.80;63.70
3944;DHT22;1986;52.546;13.428;2022-07-29T10:44:23;24.90;63.90
3944;DHT22;1986;52.546;13.428;2022-07-29T10:46:51;25.00;64.70
3944;DHT22;1986;52.546;13.428;2022-07-29T10:49:22;25.20;65.00
3944;DHT22;1986;52.546;13.428;2022-07-29T10:52:02;25.20;64.30
3944;DHT22;1986;52.546;13.428;2022-07-29T10:54:45;25.40;64.90
3944;DHT22;1986;52.546;13.428;2022-07-29T10:57:26;25.50;63.30
3944;DHT22;1986;52.546;13.428;2022-07-29T11:02:59;25.90;63.90
3944;DHT22;1986;52.546;13.428;2022-07-29T11:05:27;25.70;63.90
3944;DHT22;1986;52.546;13.428;2022-07-29T11:08:18;25.70;65.00
3944;DHT22;1986;52.546;13.428;2022-07-29T11:10:52;26.00;64.80
3944;DHT22;1986;52.546;13.428;2022-07-29T11:13:45;25.70;64.30
3944;DHT22;1986;52.546;13.428;2022-07-29T11:16:16;25.50;63.60
3944;DHT22;1986;52.546;13.428;2022-07-29T11:19:21;25.50;64.00
3944;DHT22;1986;52.546;13.428;2022-07-29T11:21:49;25.70;63.40
3944;DHT22;1986;52.546;13.428;2022-07-29T11:24:20;25.60;63.80
3944;DHT22;1986;52.546;13.428;2022-07-29T11:27:13;25.50;64.00
3944;DHT22;1986;52.546;13.428;2022-07-29T11:29:58;25.50;64.40
3944;DHT22;1986;52.546;13.428;2022-07-29T11:32:36;25.70;65.00
3944;DHT22;1986;52.546;13.428;2022-07-29T11:35:13;26.00;64.90
3944;DHT22;1986;52.546;13.428;2022-07-29T11:37:41;26.20;65.00
3944;DHT22;1986;52.546;13.428;2022-07-29T11:40:17;26.00;64.50
3944;DHT22;1986;52.546;13.428;2022-07-29T11:42:45;26.20;64.50
3944;DHT22;1986;52.546;13.428;2022-07-29T11:45:18;26.20;65.20
3944;DHT22;1986;52.546;13.428;2022-07-29T11:47:50;26.20;65.00
3944;DHT22;1986;52.546;13.428;2022-07-29T11:50:30;26.40;65.90
3944;DHT22;1986;52.546;13.428;2022-07-29T11:53:00;26.30;66.30
3944;DHT22;1986;52.546;13.428;2022-07-29T11:55:27;26.20;65.70
3944;DHT22;1986;52.546;13.428;2022-07-29T11:57:55;26.10;66.80
3944;DHT22;1986;52.546;13.428;2022-07-29T12:00:26;26.40;67.00
3944;DHT22;1986;52.546;13.428;2022-07-29T12:02:54;26.30;66.80
3944;DHT22;1986;52.546;13.428;2022-07-29T12:05:34;26.20;67.10
3944;DHT22;1986;52.546;13.428;2022-07-29T12:08:07;26.20;68.00
3944;DHT22;1986;52.546;13.428;2022-07-29T12:10:35;26.30;68.70
3944;DHT22;1986;52.546;13.428;2022-07-29T12:13:02;26.10;69.40
3944;DHT22;1986;52.546;13.428;2022-07-29T12:15:29;26.10;69.30
3944;DHT22;1986;52.546;13.428;2022-07-29T12:17:56;26.20;70.20
3944;DHT22;1986;52.546;13.428;2022-07-29T12:20:24;26.30;70.80
3944;DHT22;1986;52.546;13.428;2022-07-29T12:22:52;26.20;70.80
3944;DHT22;1986;52.546;13.428;2022-07-29T12:25:22;26.30;71.60
3944;DHT22;1986;52.546;13.428;2022-07-29T12:27:59;26.10;71.90
3944;DHT22;1986;52.546;13.428;2022-07-29T12:30:39;26.20;72.80
3944;DHT22;1986;52.546;13.428;2022-07-29T12:33:16;26.10;72.60
3944;DHT22;1986;52.546;13.428;2022-07-29T12:35:46;26.40;73.70
3944;DHT22;1986;52.546;13.428;2022-07-29T12:38:14;26.60;73.90
3944;DHT22;1986;52.546;13.428;2022-07-29T12:40:44;26.80;73.60
3944;DHT22;1986;52.546;13.428;2022-07-29T12:43:13;26.70;72.30
3944;DHT22;1986;52.546;13.428;2022-07-29T12:45:43;26.50;71.50
3944;DHT22;1986;52.546;13.428;2022-07-29T12:48:13;26.40;71.80
3944;DHT22;1986;52.546;13.428;2022-07-29T12:50:56;26.30;72.30
3944;DHT22;1986;52.546;13.428;2022-07-29T12:53:24;26.10;73.40
3944;DHT22;1986;52.546;13.428;2022-07-29T12:55:57;26.40;73.40
3944;DHT22;1986;52.546;13.428;2022-07-29T12:58:32;26.30;73.40
3944;DHT22;1986;52.546;13.428;2022-07-29T13:01:07;26.40;73.70
3944;DHT22;1986;52.546;13.428;2022-07-29T13:03:49;26.30;73.00
3944;DHT22;1986;52.546;13.428;2022-07-29T13:06:36;26.30;74.00
3944;DHT22;1986;52.546;13.428;2022-07-29T13:09:14;26.50;72.80
3944;DHT22;1986;52.546;13.428;2022-07-29T13:11:44;26.60;72.20
3944;DHT22;1986;52.546;13.428;2022-07-29T13:14:28;26.90;72.50
3944;DHT22;1986;52.546;13.428;2022-07-29T13:17:04;26.70;72.50
3944;DHT22;1986;52.546;13.428;2022-07-29T13:19:37;26.80;71.70
3944;DHT22;1986;52.546;13.428;2022-07-29T13:22:06;27.00;71.20
3944;DHT22;1986;52.546;13.428;2022-07-29T13:24:33;26.90;71.40
3944;DHT22;1986;52.546;13.428;2022-07-29T13:27:01;26.80;72.40
3944;DHT22;1986;52.546;13.428;2022-07-29T13:29:31;26.80;72.50
3944;DHT22;1986;52.546;13.428;2022-07-29T13:32:00;27.00;74.50
3944;DHT22;1986;52.546;13.428;2022-07-29T13:34:30;21.70;99.90
3944;DHT22;1986;52.546;13.428;2022-07-29T13:37:01;20.10;99.90
3944;DHT22;1986;52.546;13.428;2022-07-29T13:39:40;18.60;99.90
3944;DHT22;1986;52.546;13.428;2022-07-29T13:42:09;18.60;99.90
3944;DHT22;1986;52.546;13.428;2022-07-29T13:44:44;18.80;99.90
3944;DHT22;1986;52.546;13.428;2022-07-29T13:47:12;20.50;99.90
3944;DHT22;1986;52.546;13.428;2022-07-29T13:49:45;21.90;99.90
3944;DHT22;1986;52.546;13.428;2022-07-29T13:52:13;22.10;99.90
3944;DHT22;1986;52.546;13.428;2022-07-29T13:54:41;22.20;99.90
3944;DHT22;1986;52.546;13.428;2022-07-29T13:57:11;22.70;99.90
3944;DHT22;1986;52.546;13.428;2022-07-29T13:59:38;22.80;99.10
3944;DHT22;1986;52.546;13.428;2022-07-29T14:02:09;23.00;98.80
3944;DHT22;1986;52.546;13.428;2022-07-29T14:04:44;23.40;96.80
3944;DHT22;1986;52.546;13.428;2022-07-29T14:07:11;24.00;96.70
3944;DHT22;1986;52.546;13.428;2022-07-29T14:09:41;24.40;95.20
3944;DHT22;1986;52.546;13.428;2022-07-29T14:12:19;24.40;95.30
3944;DHT22;1986;52.546;13.428;2022-07-29T14:14:46;25.00;93.30
3944;DHT22;1986;52.546;13.428;2022-07-29T14:17:14;25.90;91.60
3944;DHT22;1986;52.546;13.428;2022-07-29T14:19:41;26.00;90.00
3944;DHT22;1986;52.546;13.428;2022-07-29T14:22:08;26.30;89.00
3944;DHT22;1986;52.546;13.428;2022-07-29T14:24:36;26.30;87.00
3944;DHT22;1986;52.546;13.428;2022-07-29T14:27:06;26.30;86.60
3944;DHT22;1986;52.546;13.428;2022-07-29T14:29:39;26.60;84.90
3944;DHT22;1986;52.546;13.428;2022-07-29T14:32:06;26.80;83.70
3944;DHT22;1986;52.546;13.428;2022-07-29T14:34:34;26.80;83.70
3944;DHT22;1986;52.546;13.428;2022-07-29T14:37:01;27.00;82.50
3944;DHT22;1986;52.546;13.428;2022-07-29T14:39:30;27.10;80.90
3944;DHT22;1986;52.546;13.428;2022-07-29T14:41:59;27.30;81.30
3944;DHT22;1986;52.546;13.428;2022-07-29T14:44:31;27.30;79.20
3944;DHT22;1986;52.546;13.428;2022-07-29T14:47:02;27.20;78.90
3944;DHT22;1986;52.546;13.428;2022-07-29T14:49:32;27.00;78.60
3944;DHT22;1986;52.546;13.428;2022-07-29T14:52:01;27.30;78.10
3944;DHT22;1986;52.546;13.428;2022-07-29T14:54:28;27.40;76.60
3944;DHT22;1986;52.546;13.428;2022-07-29T14:56:55;27.50;75.90
3944;DHT22;1986;52.546;13.428;2022-07-29T14:59:22;27.40;74.70
3944;DHT22;1986;52.546;13.428;2022-07-29T15:01:51;27.50;73.60
3944;DHT22;1986;52.546;13.428;2022-07-29T15:04:19;27.80;73.70
3944;DHT22;1986;52.546;13.428;2022-07-29T15:06:46;27.50;74.00
3944;DHT22;1986;52.546;13.428;2022-07-29T15:09:13;27.30;74.00
3944;DHT22;1986;52.546;13.428;2022-07-29T15:11:41;27.50;74.00
3944;DHT22;1986;52.546;13.428;2022-07-29T15:14:12;27.70;73.70
3944;DHT22;1986;52.546;13.428;2022-07-29T15:16:39;27.70;72.50
3944;DHT22;1986;52.546;13.428;2022-07-29T15:19:07;27.50;72.20
3944;DHT22;1986;52.546;13.428;2022-07-29T15:21:35;27.60;72.30
3944;DHT22;1986;52.546;13.428;2022-07-29T15:24:02;27.60;71.60
3944;DHT22;1986;52.546;13.428;2022-07-29T15:26:30;27.40;71.30
3944;DHT22;1986;52.546;13.428;2022-07-29T15:28:57;27.30;71.60
3944;DHT22;1986;52.546;13.428;2022-07-29T15:31:24;27.30;71.40
3944;DHT22;1986;52.546;13.428;2022-07-29T15:33:51;27.10;71.10
3944;DHT22;1986;52.546;13.428;2022-07-29T15:36:18;27.20;71.60
3944;DHT22;1986;52.546;13.428;2022-07-29T15:38:48;27.10;70.60
3944;DHT22;1986;52.546;13.428;2022-07-29T15:41:17;26.90;71.30
3944;DHT22;1986;52.546;13.428;2022-07-29T15:43:45;26.70;71.20
3944;DHT22;1986;52.546;13.428;2022-07-29T15:46:15;26.80;71.30
3944;DHT22;1986;52.546;13.428;2022-07-29T15:49:00;26.80;71.60
3944;DHT22;1986;52.546;13.428;2022-07-29T15:51:28;26.90;71.70
3944;DHT22;1986;52.546;13.428;2022-07-29T15:53:56;26.70;71.40
3944;DHT22;1986;52.546;13.428;2022-07-29T15:56:23;26.70;71.60
3944;DHT22;1986;52.546;13.428;2022-07-29T15:58:50;26.70;71.50
3944;DHT22;1986;52.546;13.428;2022-07-29T16:01:18;26.70;72.20
3944;DHT22;1986;52.546;13.428;2022-07-29T16:03:46;26.60;71.10
3944;DHT22;1986;52.546;13.428;2022-07-29T16:06:20;26.40;70.80
3944;DHT22;1986;52.546;13.428;2022-07-29T16:08:51;26.50;71.20
3944;DHT22;1986;52.546;13.428;2022-07-29T16:11:21;26.60;71.70
3944;DHT22;1986;52.546;13.428;2022-07-29T16:13:48;26.70;71.20
3944;DHT22;1986;52.546;13.428;2022-07-29T16:16:15;26.70;71.00
3944;DHT22;1986;52.546;13.428;2022-07-29T16:18:44;26.80;70.40